createdAt,value
2018-12-25T00:01:34.005Z,9.53
2018-12-25T00:04:15.501Z,7.13
2018-12-25T00:06:57.239Z,6.83
2018-12-25T00:12:26.236Z,7.57
2018-12-25T00:15:14.904Z,8.57
2018-12-25T00:18:03.440Z,6.23
2018-12-25T00:20:51.954Z,9.50
2018-12-25T00:26:47.848Z,8.27
2018-12-25T00:32:25.705Z,5.93
2018-12-25T00:35:14.430Z,8.50
2018-12-25T00:38:02.938Z,10.13
2018-12-25T00:40:51.434Z,6.30
2018-12-25T00:43:39.965Z,9.63
2018-12-25T00:46:28.848Z,6.40
2018-12-25T00:49:14.703Z,5.93
2018-12-25T00:51:53.187Z,4.97
2018-12-25T00:54:34.117Z,9.47
2018-12-25T00:57:15.411Z,9.70
2018-12-25T00:59:56.632Z,6.17
2018-12-25T01:02:37.759Z,6.20
2018-12-25T01:08:08.521Z,5.93
2018-12-25T01:10:49.529Z,8.83
2018-12-25T01:13:31.179Z,6.67
2018-12-25T01:16:12.667Z,6.57
2018-12-25T01:21:36.714Z,5.80
2018-12-25T01:24:18.243Z,7.03
2018-12-25T01:26:59.526Z,8.40
2018-12-25T01:29:40.863Z,6.77
2018-12-25T01:32:22.582Z,6.50
2018-12-25T01:35:04.135Z,5.97
2018-12-25T01:37:45.670Z,7.20
2018-12-25T01:40:26.659Z,7.97
2018-12-25T01:43:07.950Z,7.57
2018-12-25T01:45:37.107Z,5.77
2018-12-25T01:48:18.223Z,6.23
2018-12-25T01:50:59.717Z,6.20
2018-12-25T01:53:41.639Z,4.70
2018-12-25T01:56:23.420Z,4.77
2018-12-25T01:59:05.471Z,5.53
2018-12-25T02:04:31.433Z,4.10
2018-12-25T02:07:14.007Z,8.03
2018-12-25T02:09:56.215Z,4.57
2018-12-25T02:12:39.790Z,4.90
2018-12-25T02:15:22.843Z,5.17
2018-12-25T02:18:05.820Z,4.77
2018-12-25T02:20:48.809Z,7.03
2018-12-25T02:23:31.665Z,5.90
2018-12-25T02:26:15.151Z,5.53
2018-12-25T02:28:57.988Z,4.23
2018-12-25T02:31:40.717Z,9.03
2018-12-25T02:34:22.980Z,7.63
2018-12-25T02:37:06.378Z,6.40
2018-12-25T02:39:49.788Z,4.73
2018-12-25T02:42:33.126Z,5.47
2018-12-25T02:45:15.796Z,5.37
2018-12-25T02:50:48.406Z,5.67
2018-12-25T02:53:32.053Z,7.43
2018-12-25T02:56:14.399Z,6.17
2018-12-25T03:01:46.222Z,6.93
2018-12-25T03:04:29.053Z,4.17
2018-12-25T03:07:12.098Z,5.13
2018-12-25T03:09:55.291Z,8.97
2018-12-25T03:12:36.302Z,4.77
2018-12-25T03:15:17.811Z,6.53
2018-12-25T03:17:58.905Z,4.47
2018-12-25T03:20:40.945Z,4.23
2018-12-25T03:23:22.085Z,7.17
2018-12-25T03:28:53.179Z,6.17
2018-12-25T03:31:34.782Z,4.93
2018-12-25T03:34:15.858Z,4.33
2018-12-25T03:39:50.845Z,7.53
2018-12-25T03:42:32.487Z,5.20
2018-12-25T03:45:14.059Z,6.60
2018-12-25T03:47:55.640Z,5.70
2018-12-25T03:50:37.037Z,6.70
2018-12-25T03:53:18.529Z,6.07
2018-12-25T03:56:00.292Z,5.33
2018-12-25T04:04:21.528Z,5.67
2018-12-25T04:07:02.695Z,5.50
2018-12-25T04:09:44.528Z,6.77
2018-12-25T04:15:15.193Z,6.60
2018-12-25T04:17:56.894Z,7.47
2018-12-25T04:20:37.995Z,6.93
2018-12-25T04:23:19.719Z,5.50
2018-12-25T04:26:01.481Z,8.43
2018-12-25T04:28:42.949Z,6.33
2018-12-25T04:31:24.652Z,5.80
2018-12-25T04:34:06.152Z,5.70
2018-12-25T04:36:47.387Z,7.70
2018-12-25T04:39:28.558Z,6.77
2018-12-25T04:42:10.040Z,6.90
2018-12-25T04:50:30.610Z,6.73
2018-12-25T04:53:12.545Z,7.17
2018-12-25T04:55:54.151Z,11.13
2018-12-25T05:04:14.508Z,5.20
2018-12-25T05:06:56.080Z,10.37
2018-12-25T05:12:27.571Z,6.93
2018-12-25T05:15:08.677Z,5.43
2018-12-25T05:17:49.654Z,7.30
2018-12-25T05:20:37.929Z,7.17
2018-12-25T05:26:21.602Z,8.10
2018-12-25T05:29:02.862Z,7.30
2018-12-25T05:31:44.282Z,5.30
2018-12-25T05:34:25.410Z,6.27
2018-12-25T05:37:06.997Z,7.00
2018-12-25T05:39:48.350Z,6.40
2018-12-25T05:42:34.257Z,8.90
2018-12-25T05:45:15.822Z,6.23
2018-12-25T05:48:01.393Z,5.63
2018-12-25T05:50:46.858Z,7.27
2018-12-25T05:53:26.157Z,5.60
2018-12-25T05:56:07.383Z,8.03
2018-12-25T05:58:48.547Z,6.27
2018-12-25T06:01:30.383Z,5.97
2018-12-25T06:04:15.116Z,5.73
2018-12-25T06:06:56.533Z,5.03
2018-12-25T06:09:38.363Z,7.90
2018-12-25T06:12:19.814Z,4.90
2018-12-25T06:20:40.666Z,6.67
2018-12-25T06:23:22.201Z,4.67
2018-12-25T06:28:53.478Z,7.73
2018-12-25T06:31:35.605Z,5.63
2018-12-25T06:34:17.136Z,5.53
2018-12-25T06:36:58.950Z,6.57
2018-12-25T06:42:23.370Z,4.50
2018-12-25T06:45:04.987Z,5.10
2018-12-25T06:47:46.445Z,5.33
2018-12-25T06:50:15.755Z,6.60
2018-12-25T06:56:18.826Z,6.23
2018-12-25T06:59:07.409Z,5.80
2018-12-25T07:01:55.933Z,5.30
2018-12-25T07:04:44.577Z,6.60
2018-12-25T07:07:33.070Z,10.27
2018-12-25T07:10:21.609Z,6.30
2018-12-25T07:13:10.117Z,8.57
2018-12-25T07:18:54.200Z,7.67
2018-12-25T07:21:42.719Z,5.97
2018-12-25T07:27:20.550Z,7.00
2018-12-25T07:30:09.118Z,6.93
2018-12-25T07:32:57.734Z,6.13
2018-12-25T07:35:46.465Z,5.87
2018-12-25T07:38:34.952Z,5.60
2018-12-25T07:41:23.491Z,6.40
2018-12-25T07:44:12.200Z,6.90
2018-12-25T07:46:53.866Z,6.70
2018-12-25T07:49:35.399Z,6.30
2018-12-25T07:52:16.902Z,6.53
2018-12-25T07:54:59.556Z,6.33
2018-12-25T07:57:42.079Z,5.40
2018-12-25T08:00:23.753Z,5.00
2018-12-25T08:03:04.987Z,6.87
2018-12-25T08:05:46.262Z,7.60
2018-12-25T08:08:27.403Z,4.97
2018-12-25T08:11:09.100Z,8.37
2018-12-25T08:13:51.794Z,7.37
2018-12-25T08:16:35.304Z,6.03
2018-12-25T08:19:17.743Z,7.77
2018-12-25T08:22:00.376Z,6.93
2018-12-25T08:24:43.037Z,6.80
2018-12-25T08:27:26.083Z,6.43
2018-12-25T08:30:08.007Z,6.17
2018-12-25T08:32:50.817Z,7.10
2018-12-25T08:35:34.198Z,6.90
2018-12-25T08:38:16.441Z,6.27
2018-12-25T08:40:59.640Z,6.73
2018-12-25T08:43:42.497Z,6.87
2018-12-25T08:46:25.144Z,11.73
2018-12-25T08:49:06.859Z,8.83
2018-12-25T08:51:49.503Z,7.20
2018-12-25T08:54:30.359Z,5.93
2018-12-25T08:57:11.952Z,8.93
2018-12-25T08:59:53.428Z,9.97
2018-12-25T09:02:34.957Z,6.13
2018-12-25T09:05:16.162Z,8.50
2018-12-25T09:07:58.507Z,10.20
2018-12-25T09:10:41.246Z,6.97
2018-12-25T09:13:24.231Z,6.63
2018-12-25T09:16:06.383Z,8.77
2018-12-25T09:18:48.888Z,6.80
2018-12-25T09:21:31.033Z,6.43
2018-12-25T09:24:12.505Z,5.43
2018-12-25T09:26:56.265Z,6.93
2018-12-25T09:29:39.795Z,8.67
2018-12-25T09:32:21.326Z,6.67
2018-12-25T09:35:06.062Z,5.80
2018-12-25T09:37:49.566Z,4.97
2018-12-25T09:43:15.061Z,5.50
2018-12-25T09:45:58.049Z,5.17
2018-12-25T09:48:40.447Z,6.83
2018-12-25T09:51:23.031Z,5.13
2018-12-25T09:54:04.996Z,5.47
2018-12-25T09:56:46.921Z,4.43
2018-12-25T09:59:28.432Z,5.27
2018-12-25T10:02:09.575Z,6.37
2018-12-25T10:04:50.610Z,7.67
2018-12-25T10:07:31.888Z,6.40
2018-12-25T10:10:31.968Z,3.90
2018-12-25T10:13:23.047Z,6.20
2018-12-25T10:16:04.226Z,4.33
2018-12-25T10:18:45.955Z,6.10
2018-12-25T10:21:27.431Z,11.77
2018-12-25T10:24:08.444Z,4.80
2018-12-25T10:26:49.919Z,7.40
2018-12-25T10:29:31.353Z,5.03
2018-12-25T10:32:00.527Z,5.57
2018-12-25T10:34:49.225Z,3.77
2018-12-25T10:37:37.702Z,3.73
2018-12-25T10:40:26.302Z,3.10
2018-12-25T10:43:14.788Z,5.03
2018-12-25T10:45:56.289Z,7.67
2018-12-25T10:48:37.800Z,3.37
2018-12-25T10:51:20.593Z,4.40
2018-12-25T10:54:01.980Z,3.70
2018-12-25T10:56:43.675Z,4.33
2018-12-25T10:59:25.044Z,5.87
2018-12-25T11:02:06.354Z,2.20
2018-12-25T11:04:47.533Z,4.10
2018-12-25T11:07:29.472Z,3.67
2018-12-25T11:10:10.734Z,2.70
2018-12-25T11:12:39.934Z,3.87
2018-12-25T11:15:28.430Z,4.13
2018-12-25T11:18:16.979Z,2.43
2018-12-25T11:21:05.538Z,5.30
2018-12-25T11:23:54.158Z,6.33
2018-12-25T11:26:42.638Z,3.03
2018-12-25T11:29:31.238Z,2.67
2018-12-25T11:32:19.719Z,2.20
2018-12-25T11:35:08.440Z,3.83
2018-12-25T11:37:56.927Z,7.77
2018-12-25T11:40:45.426Z,3.50
2018-12-25T11:43:33.916Z,4.67
2018-12-25T11:46:22.651Z,4.27
2018-12-25T11:49:04.472Z,2.93
2018-12-25T11:51:46.943Z,4.00
2018-12-25T11:54:28.684Z,3.17
2018-12-25T11:57:10.534Z,2.87
2018-12-25T11:59:51.916Z,3.90
2018-12-25T12:02:33.760Z,7.80
2018-12-25T12:05:14.949Z,2.63
2018-12-25T12:07:57.002Z,5.70
2018-12-25T12:13:38.851Z,4.23
2018-12-25T12:16:20.373Z,4.83
2018-12-25T12:19:02.553Z,2.50
2018-12-25T12:21:43.639Z,2.43
2018-12-25T12:24:24.618Z,3.70
2018-12-25T12:27:05.636Z,6.00
2018-12-25T12:29:46.957Z,5.20
2018-12-25T12:32:28.045Z,2.63
2018-12-25T12:35:09.229Z,1.57
2018-12-25T12:37:50.883Z,3.13
2018-12-25T12:40:32.537Z,2.90
2018-12-25T12:43:13.878Z,5.57
2018-12-25T12:45:55.392Z,3.77
2018-12-25T12:48:37.191Z,2.73
2018-12-25T12:51:19.505Z,3.47
2018-12-25T12:54:01.186Z,2.93
2018-12-25T12:56:42.854Z,4.17
2018-12-25T12:59:23.923Z,3.83
2018-12-25T13:02:05.439Z,2.87
2018-12-25T13:04:46.591Z,2.97
2018-12-25T13:07:28.316Z,3.80
2018-12-25T13:10:09.881Z,3.83
2018-12-25T13:12:51.267Z,3.93
2018-12-25T13:15:32.690Z,3.03
2018-12-25T13:18:14.813Z,4.40
2018-12-25T13:20:56.211Z,3.10
2018-12-25T13:23:37.957Z,3.43
2018-12-25T13:26:19.355Z,4.73
2018-12-25T13:29:01.032Z,4.10
2018-12-25T13:31:42.572Z,4.27
2018-12-25T13:34:23.792Z,4.23
2018-12-25T13:37:05.447Z,3.93
2018-12-25T13:39:47.177Z,5.57
2018-12-25T13:42:29.031Z,4.43
2018-12-25T13:45:10.300Z,4.67
2018-12-25T13:47:52.270Z,4.13
2018-12-25T13:50:33.674Z,4.23
2018-12-25T13:53:14.945Z,3.43
2018-12-25T13:55:56.633Z,2.60
2018-12-25T13:58:38.171Z,2.67
2018-12-25T14:01:19.285Z,5.47
2018-12-25T14:04:01.551Z,3.93
2018-12-25T14:06:42.671Z,5.47
2018-12-25T14:09:24.158Z,5.20
2018-12-25T14:12:05.508Z,5.40
2018-12-25T14:14:47.305Z,4.47
2018-12-25T14:17:28.565Z,3.77
2018-12-25T14:20:09.745Z,3.17
2018-12-25T14:22:51.053Z,4.67
2018-12-25T14:25:32.682Z,4.63
2018-12-25T14:28:13.880Z,5.97
2018-12-25T14:30:55.532Z,5.57
2018-12-25T14:33:37.264Z,2.97
2018-12-25T14:36:18.539Z,3.33
2018-12-25T14:39:00.411Z,2.93
2018-12-25T14:41:41.391Z,4.83
2018-12-25T14:44:22.431Z,4.70
2018-12-25T14:49:46.706Z,3.80
2018-12-25T14:52:28.227Z,3.33
2018-12-25T14:55:10.987Z,2.20
2018-12-25T14:57:52.311Z,5.60
2018-12-25T15:00:42.327Z,4.70
2018-12-25T15:03:30.892Z,2.60
2018-12-25T15:06:19.384Z,3.50
2018-12-25T15:09:08.062Z,5.73
2018-12-25T15:11:56.672Z,4.80
2018-12-25T15:14:45.230Z,4.17
2018-12-25T15:17:33.739Z,5.93
2018-12-25T15:20:22.313Z,5.90
2018-12-25T15:23:10.793Z,5.90
2018-12-25T15:26:00.321Z,4.83
2018-12-25T15:28:48.838Z,5.17
2018-12-25T15:31:37.389Z,5.80
2018-12-25T15:34:25.897Z,6.50
2018-12-25T15:37:14.694Z,4.47
2018-12-25T15:40:03.456Z,7.30
2018-12-25T15:42:52.008Z,5.70
2018-12-25T15:45:40.490Z,6.20
2018-12-25T15:48:29.103Z,7.27
2018-12-25T15:51:17.591Z,6.63
2018-12-25T15:54:06.096Z,5.90
2018-12-25T15:56:54.640Z,6.57
2018-12-25T15:59:43.197Z,7.07
2018-12-25T16:02:31.769Z,6.47
2018-12-25T16:05:20.300Z,7.90
2018-12-25T16:08:08.791Z,7.93
2018-12-25T16:10:57.292Z,9.47
2018-12-25T16:13:45.774Z,7.03
2018-12-25T16:16:34.331Z,11.80
2018-12-25T16:19:22.987Z,8.53
2018-12-25T16:22:11.489Z,8.40
2018-12-25T16:24:59.999Z,7.47
2018-12-25T16:27:48.625Z,9.10
2018-12-25T16:30:37.137Z,10.03
2018-12-25T16:33:25.663Z,9.33
2018-12-25T16:36:14.252Z,8.83
2018-12-25T16:39:03.094Z,8.07
2018-12-25T16:41:51.687Z,9.17
2018-12-25T16:47:41.131Z,11.07
2018-12-25T16:50:22.615Z,9.23
2018-12-25T16:53:04.046Z,12.33
2018-12-25T16:55:45.268Z,8.80
2018-12-25T16:58:27.291Z,11.67
2018-12-25T17:01:10.245Z,7.87
2018-12-25T17:03:51.816Z,9.60
2018-12-25T17:06:32.973Z,8.83
2018-12-25T17:09:15.450Z,12.27
2018-12-25T17:11:56.951Z,9.23
2018-12-25T17:14:38.550Z,12.70
2018-12-25T17:17:20.135Z,8.07
2018-12-25T17:20:01.543Z,8.47
2018-12-25T17:22:43.065Z,12.00
2018-12-25T17:25:12.236Z,11.40
2018-12-25T17:28:00.729Z,8.53
2018-12-25T17:30:50.640Z,10.47
2018-12-25T17:33:59.242Z,10.80
2018-12-25T17:36:47.750Z,9.37
2018-12-25T17:39:36.230Z,12.50
2018-12-25T17:42:24.775Z,13.80
2018-12-25T17:45:27.845Z,13.40
2018-12-25T17:48:11.588Z,16.80
2018-12-25T17:50:52.939Z,12.83
2018-12-25T17:53:22.111Z,12.77
2018-12-25T17:56:10.983Z,13.27
2018-12-25T17:58:59.528Z,11.60
2018-12-25T18:02:23.056Z,12.53
2018-12-25T18:05:53.010Z,14.13
2018-12-25T18:08:50.558Z,12.73
2018-12-25T18:11:39.290Z,14.20
2018-12-25T18:14:27.828Z,14.97
2018-12-25T18:17:18.947Z,11.23
2018-12-25T18:23:40.624Z,14.27
2018-12-25T18:29:44.498Z,16.07
2018-12-25T18:42:05.387Z,16.93
2018-12-25T18:44:54.965Z,17.27
2018-12-25T18:47:36.305Z,22.27
2018-12-25T18:50:18.710Z,18.13
2018-12-25T18:53:01.733Z,21.67
2018-12-25T18:55:43.539Z,19.27
2018-12-25T18:58:24.955Z,18.00
2018-12-25T19:01:06.413Z,19.97
2018-12-25T19:03:48.424Z,18.40
2018-12-25T19:06:30.248Z,20.93
2018-12-25T19:09:11.996Z,21.33
2018-12-25T19:11:54.391Z,19.77
2018-12-25T19:14:36.892Z,20.50
2018-12-25T19:17:18.335Z,22.40
2018-12-25T19:19:59.467Z,26.43
2018-12-25T19:22:42.650Z,27.40
2018-12-25T19:25:23.972Z,26.03
2018-12-25T19:28:05.880Z,29.50
2018-12-25T19:30:49.736Z,26.57
2018-12-25T19:33:32.335Z,29.67
2018-12-25T19:36:13.985Z,28.63
2018-12-25T19:38:55.996Z,30.33
2018-12-25T19:41:37.653Z,32.17
2018-12-25T19:44:07.195Z,32.43
2018-12-25T19:46:48.899Z,34.00
2018-12-25T19:49:31.766Z,31.37
2018-12-25T19:52:12.851Z,34.50
2018-12-25T19:54:54.388Z,33.83
2018-12-25T19:57:36.104Z,32.83
2018-12-25T20:00:17.800Z,34.33
2018-12-25T20:02:59.411Z,36.70
2018-12-25T20:06:07.452Z,35.57
2018-12-25T20:09:16.230Z,38.33
2018-12-25T20:12:24.144Z,41.83
2018-12-25T20:15:47.933Z,35.43
2018-12-25T20:19:02.887Z,34.73
2018-12-25T20:22:12.734Z,36.47
2018-12-25T20:25:22.290Z,40.53
2018-12-25T20:28:32.021Z,31.53
2018-12-25T20:31:41.475Z,36.27
2018-12-25T20:34:50.791Z,37.33
2018-12-25T20:38:01.415Z,35.13
2018-12-25T20:41:09.252Z,36.50
2018-12-25T20:44:17.126Z,32.70
2018-12-25T20:46:58.545Z,31.57
2018-12-25T20:49:39.565Z,33.37
2018-12-25T20:52:21.048Z,33.73
2018-12-25T20:55:02.178Z,36.77
2018-12-25T20:57:44.184Z,36.37
2018-12-25T21:00:25.989Z,31.93
2018-12-25T21:03:08.841Z,33.70
2018-12-25T21:05:51.087Z,31.77
2018-12-25T21:08:34.115Z,31.30
2018-12-25T21:11:17.375Z,35.40
2018-12-25T21:14:01.379Z,33.00
2018-12-25T21:16:44.802Z,34.07
2018-12-25T21:19:28.305Z,32.37
2018-12-25T21:22:11.167Z,33.17
2018-12-25T21:24:53.903Z,31.57
2018-12-25T21:27:35.857Z,31.87
2018-12-25T21:33:05.467Z,30.73
2018-12-25T21:35:49.438Z,29.70
2018-12-25T21:38:35.591Z,29.47
2018-12-25T21:41:20.386Z,29.67
2018-12-25T21:44:05.944Z,31.83
2018-12-25T21:46:51.617Z,31.27
2018-12-25T21:49:36.347Z,28.33
2018-12-25T21:55:02.599Z,28.63
2018-12-25T21:57:33.224Z,32.87
2018-12-25T22:00:24.921Z,29.23
2018-12-25T22:03:47.395Z,33.73
2018-12-25T22:06:45.933Z,26.83
2018-12-25T22:09:58.193Z,28.13
2018-12-25T22:15:46.945Z,24.97
2018-12-25T22:18:35.622Z,27.30
2018-12-25T22:21:24.263Z,27.37
2018-12-25T22:24:12.842Z,26.37
2018-12-25T22:27:01.667Z,26.87
2018-12-25T22:29:50.190Z,24.70
2018-12-25T22:32:38.693Z,24.33
2018-12-25T22:35:27.398Z,25.17
2018-12-25T22:38:15.918Z,26.57
2018-12-25T22:41:04.619Z,23.50
2018-12-25T22:43:53.219Z,25.93
2018-12-25T22:46:35.018Z,26.47
2018-12-25T22:49:18.085Z,27.70
2018-12-25T22:51:59.763Z,26.00
2018-12-25T22:54:40.981Z,27.00
2018-12-25T22:57:23.361Z,23.47
2018-12-25T23:00:05.219Z,25.70
2018-12-25T23:02:46.601Z,24.07
2018-12-25T23:05:32.874Z,28.57
2018-12-25T23:08:14.277Z,29.67
2018-12-25T23:10:55.939Z,25.83
2018-12-25T23:13:37.856Z,25.70
2018-12-25T23:16:18.898Z,27.00
2018-12-25T23:19:00.294Z,27.93
2018-12-25T23:27:40.474Z,28.87
2018-12-25T23:30:21.993Z,28.00
2018-12-25T23:33:03.856Z,26.37
2018-12-25T23:35:45.927Z,29.37
2018-12-25T23:38:28.716Z,27.93
2018-12-25T23:41:10.568Z,29.17
2018-12-25T23:43:52.526Z,26.30
2018-12-25T23:46:34.210Z,25.90
2018-12-25T23:49:15.706Z,29.33
2018-12-25T23:51:57.120Z,27.80
2018-12-25T23:54:38.559Z,26.40
2018-12-25T23:57:20.740Z,27.70
